Time;durP1;ratioP1;P1;durP2;ratioP2;P2;SDS_P1;SDS_P2;PMS_P1;PMS_P2;Temp;Humidity;BMP_temperature;BMP_pressure;BME280_temperature;BME280_humidity;BME280_pressure;Samples;Min_cycle;Max_cycle;Signal;HPM_P1;HPM_P2
2021/03/27 06:00:40;;;;;;;4.07;1.40;;;;;;;;;;5074909;28;20781;-59
2021/03/27 06:03:06;;;;;;;0.20;0.20;;;;;;;;;;5076856;28;20060;-61
2021/03/27 06:05:37;;;;;;;0.10;0.10;;;;;;;;;;5052986;28;20031;-59
2021/03/27 06:08:14;;;;;;;1.30;0.68;;;;;;;;;;5053329;28;20133;-61
2021/03/27 06:10:58;;;;;;;0.85;0.85;;;;;;;;;;5056811;28;20052;-60
2021/03/27 06:13:24;;;;;;;0.30;0.30;;;;;;;;;;5061112;28;20017;-61
2021/03/27 06:15:50;;;;;;;0.22;0.22;;;;;;;;;;5051950;28;20424;-61
2021/03/27 06:18:32;;;;;;;0.10;0.10;;;;;;;;;;5049736;28;20172;-61
2021/03/27 06:20:58;;;;;;;0.20;0.20;;;;;;;;;;5065017;28;20036;-58
2021/03/27 06:23:27;;;;;;;0.20;0.20;;;;;;;;;;5070524;28;20397;-59
2021/03/27 06:26:05;;;;;;;0.10;0.10;;;;;;;;;;5070077;28;20037;-59
2021/03/27 06:28:50;;;;;;;0.10;0.10;;;;;;;;;;5064117;28;20056;-59
2021/03/27 06:31:35;;;;;;;1.38;0.73;;;;;;;;;;5052527;28;20089;-61
2021/03/27 06:34:20;;;;;;;1.00;0.30;;;;;;;;;;5052391;28;20037;-61
2021/03/27 06:37:06;;;;;;;0.87;0.63;;;;;;;;;;5050520;28;20276;-61
2021/03/27 06:39:57;;;;;;;0.10;0.10;;;;;;;;;;5048906;28;20495;-61
2021/03/27 06:42:33;;;;;;;0.10;0.10;;;;;;;;;;5048426;28;20030;-61
2021/03/27 06:44:59;;;;;;;2.08;0.63;;;;;;;;;;5063560;28;20067;-60
2021/03/27 06:47:34;;;;;;;0.10;0.10;;;;;;;;;;5052823;28;20025;-61
2021/03/27 06:50:12;;;;;;;1.55;0.65;;;;;;;;;;5051943;28;20047;-61
2021/03/27 06:52:47;;;;;;;0.68;0.38;;;;;;;;;;5052494;28;20065;-61
2021/03/27 06:55:28;;;;;;;34.10;0.85;;;;;;;;;;5052444;28;20059;-61
2021/03/27 06:58:13;;;;;;;3.63;1.00;;;;;;;;;;5052726;28;20037;-61
2021/03/27 07:00:39;;;;;;;0.22;0.22;;;;;;;;;;5040562;28;20435;-61
2021/03/27 07:03:06;;;;;;;0.28;0.28;;;;;;;;;;5052911;28;20410;-60
2021/03/27 07:05:32;;;;;;;5.22;0.75;;;;;;;;;;5058752;28;20025;-60
2021/03/27 07:08:01;;;;;;;1.40;0.30;;;;;;;;;;5056375;28;20585;-61
2021/03/27 07:10:45;;;;;;;4.55;0.98;;;;;;;;;;5056633;28;20025;-60
2021/03/27 07:13:18;;;;;;;8.02;0.85;;;;;;;;;;5059443;28;20028;-60
2021/03/27 07:15:50;;;;;;;4.88;1.80;;;;;;;;;;5090913;28;20411;-61
2021/03/27 07:18:28;;;;;;;1.55;0.75;;;;;;;;;;5051181;28;20052;-60
2021/03/27 07:20:55;;;;;;;6.78;0.75;;;;;;;;;;5048871;28;20024;-60
2021/03/27 07:23:52;;;;;;;5.03;1.70;;;;;;;;;;5049132;28;20025;-60
2021/03/27 07:26:18;;;;;;;1.13;0.30;;;;;;;;;;5070750;28;20033;-59
2021/03/27 07:29:00;;;;;;;2.25;1.40;;;;;;;;;;5044150;28;20044;-60
2021/03/27 07:31:32;;;;;;;0.20;0.20;;;;;;;;;;5048445;28;20586;-59
2021/03/27 07:34:13;;;;;;;0.20;0.20;;;;;;;;;;5054111;28;20038;-61
2021/03/27 07:36:48;;;;;;;1.75;0.65;;;;;;;;;;5060311;28;20022;-60
2021/03/27 07:39:14;;;;;;;2.50;0.40;;;;;;;;;;5051497;28;20025;-60
2021/03/27 07:41:56;;;;;;;0.10;0.10;;;;;;;;;;5084012;28;20577;-61
2021/03/27 07:44:50;;;;;;;0.20;0.20;;;;;;;;;;5050506;28;20033;-60
2021/03/27 07:47:28;;;;;;;1.75;0.55;;;;;;;;;;5047404;28;20468;-60
2021/03/27 07:49:54;;;;;;;0.32;0.32;;;;;;;;;;5049221;28;20453;-61
2021/03/27 07:52:42;;;;;;;0.15;0.15;;;;;;;;;;5049290;28;20028;-60
2021/03/27 07:55:08;;;;;;;1.63;0.93;;;;;;;;;;5048961;28;20036;-60
2021/03/27 07:57:49;;;;;;;0.20;0.20;;;;;;;;;;5048895;28;20101;-60
2021/03/27 08:00:18;;;;;;;0.32;0.32;;;;;;;;;;5051200;28;20045;-59
2021/03/27 08:02:53;;;;;;;0.73;0.73;;;;;;;;;;5052496;28;20084;-60
2021/03/27 08:05:44;;;;;;;0.10;0.10;;;;;;;;;;5048747;28;20171;-60
2021/03/27 08:08:19;;;;;;;11.07;0.70;;;;;;;;;;5048647;28;20048;-60
2021/03/27 08:11:03;;;;;;;0.10;0.10;;;;;;;;;;5053370;28;20082;-60
2021/03/27 08:13:48;;;;;;;0.98;0.80;;;;;;;;;;5054690;28;20221;-59
2021/03/27 08:16:32;;;;;;;0.98;0.25;;;;;;;;;;5055085;28;20037;-60
2021/03/27 08:19:00;;;;;;;0.10;0.10;;;;;;;;;;5057266;28;20081;-59
2021/03/27 08:21:44;;;;;;;3.78;1.38;;;;;;;;;;5029429;28;20040;-60
2021/03/27 08:24:20;;;;;;;2.10;0.93;;;;;;;;;;5038167;28;20124;-61
2021/03/27 08:26:46;;;;;;;;;;;;;;;;;;5042621;28;20042;-60
2021/03/27 08:29:30;;;;;;;0.40;0.40;;;;;;;;;;5046258;28;19917;-60
2021/03/27 08:32:09;;;;;;;0.20;0.20;;;;;;;;;;5051079;28;20158;-60
2021/03/27 08:34:38;;;;;;;4.85;0.68;;;;;;;;;;5044633;28;20025;-60
2021/03/27 08:37:16;;;;;;;0.10;0.10;;;;;;;;;;5044152;28;20185;-61
2021/03/27 08:40:01;;;;;;;0.20;0.20;;;;;;;;;;5050216;28;20036;-60
2021/03/27 08:42:27;;;;;;;1.27;0.55;;;;;;;;;;5055513;28;20090;-60
2021/03/27 08:45:13;;;;;;;0.75;0.75;;;;;;;;;;5053717;28;20120;-61
2021/03/27 08:47:48;;;;;;;3.33;1.02;;;;;;;;;;5016074;28;20041;-61
2021/03/27 08:50:38;;;;;;;2.42;1.85;;;;;;;;;;5012448;28;20034;-60
2021/03/27 08:53:17;;;;;;;7.03;1.25;;;;;;;;;;4944892;28;20043;-60
2021/03/27 08:55:43;;;;;;;2.83;0.65;;;;;;;;;;4953023;28;20398;-61
2021/03/27 08:58:12;;;;;;;0.45;0.45;;;;;;;;;;4952148;28;20051;-61
2021/03/27 09:00:49;;;;;;;0.10;0.10;;;;;;;;;;4937172;28;20087;-60
2021/03/27 09:03:33;;;;;;;0.10;0.10;;;;;;;;;;4953661;28;20235;-61
2021/03/27 09:06:11;;;;;;;6.95;1.73;;;;;;;;;;4953933;28;20082;-60
2021/03/27 09:08:40;;;;;;;0.10;0.10;;;;;;;;;;4937823;29;20035;-61
2021/03/27 09:11:24;;;;;;;0.10;0.10;;;;;;;;;;4947487;29;20047;-61
2021/03/27 09:14:09;;;;;;;0.15;0.15;;;;;;;;;;4932260;29;20167;-61
2021/03/27 09:16:38;;;;;;;0.55;0.52;;;;;;;;;;4947961;29;20494;-60
2021/03/27 09:19:19;;;;;;;0.10;0.10;;;;;;;;;;4947566;29;20035;-60
2021/03/27 09:22:04;;;;;;;2.78;0.98;;;;;;;;;;4948503;28;20160;-60
2021/03/27 09:24:44;;;;;;;3.53;0.22;;;;;;;;;;4969957;28;20648;-60
2021/03/27 09:27:22;;;;;;;2.40;1.25;;;;;;;;;;5003356;28;20113;-60
2021/03/27 09:29:58;;;;;;;0.20;0.20;;;;;;;;;;5013065;28;20136;-61
2021/03/27 09:32:24;;;;;;;0.65;0.30;;;;;;;;;;5049527;28;20029;-60
2021/03/27 09:34:59;;;;;;;4.47;0.30;;;;;;;;;;5053477;28;20076;-61
2021/03/27 09:37:34;;;;;;;0.47;0.45;;;;;;;;;;5040198;28;20108;-61
2021/03/27 09:40:15;;;;;;;12.38;1.67;;;;;;;;;;5047425;28;20021;-61
2021/03/27 09:42:41;;;;;;;0.10;0.10;;;;;;;;;;5047237;28;20014;-60
2021/03/27 09:45:15;;;;;;;4.60;0.50;;;;;;;;;;5049579;28;20025;-60
2021/03/27 09:47:47;;;;;;;9.68;1.25;;;;;;;;;;5049498;28;20112;-61
2021/03/27 09:50:27;;;;;;;0.10;0.10;;;;;;;;;;5055117;28;20032;-60
2021/03/27 09:52:56;;;;;;;0.68;0.17;;;;;;;;;;5054528;28;20116;-62
2021/03/27 09:55:31;;;;;;;5.15;0.43;;;;;;;;;;5057816;28;20013;-61
2021/03/27 09:58:13;;;;;;;12.77;1.38;;;;;;;;;;5030048;28;20025;-60
2021/03/27 10:00:48;;;;;;;1.10;0.75;;;;;;;;;;5030301;28;20525;-60
2021/03/27 10:03:32;;;;;;;0.17;0.10;;;;;;;;;;5047952;28;20070;-60
2021/03/27 10:06:17;;;;;;;0.20;0.20;;;;;;;;;;5034434;28;20030;-60
2021/03/27 10:08:48;;;;;;;1.30;0.23;;;;;;;;;;5040218;28;20120;-60
2021/03/27 10:11:18;;;;;;;3.30;1.08;;;;;;;;;;5043042;28;20087;-60
2021/03/27 10:13:44;;;;;;;0.20;0.20;;;;;;;;;;5043103;28;20033;-64
2021/03/27 10:16:19;;;;;;;9.20;1.40;;;;;;;;;;5045009;28;20029;-60
2021/03/27 10:19:00;;;;;;;6.30;1.92;;;;;;;;;;5030109;28;20490;-61
2021/03/27 10:21:48;;;;;;;2.67;0.80;;;;;;;;;;5043017;28;20051;-61
2021/03/27 10:24:24;;;;;;;0.30;0.30;;;;;;;;;;5045714;28;20036;-61
2021/03/27 10:27:04;;;;;;;0.10;0.10;;;;;;;;;;5042358;28;20047;-60
2021/03/27 10:32:17;;;;;;;5.20;0.90;;;;;;;;;;5042305;28;20036;-61
2021/03/27 10:34:47;;;;;;;1.02;0.70;;;;;;;;;;5042813;28;20545;-61
2021/03/27 10:37:31;;;;;;;0.63;0.20;;;;;;;;;;5047417;28;20032;-61
2021/03/27 10:39:58;;;;;;;9.30;1.75;;;;;;;;;;5043544;28;20033;-61
2021/03/27 10:42:27;;;;;;;2.33;0.40;;;;;;;;;;5050457;28;20028;-61
2021/03/27 10:45:12;;;;;;;1.27;0.60;;;;;;;;;;5052058;28;20039;-60
2021/03/27 10:48:01;;;;;;;0.28;0.20;;;;;;;;;;5057334;28;20484;-62
2021/03/27 10:50:32;;;;;;;1.27;0.32;;;;;;;;;;5043967;28;20477;-61
2021/03/27 10:53:01;;;;;;;0.32;0.10;;;;;;;;;;5043713;28;20043;-61
2021/03/27 10:55:50;;;;;;;0.38;0.30;;;;;;;;;;5044857;28;20037;-61
2021/03/27 10:58:24;;;;;;;4.18;0.40;;;;;;;;;;5041620;28;20051;-61
2021/03/27 11:00:58;;;;;;;0.88;0.60;;;;;;;;;;5043578;28;20049;-61
2021/03/27 11:03:43;;;;;;;0.30;0.30;;;;;;;;;;5051188;28;20037;-61
2021/03/27 11:06:19;;;;;;;1.23;0.60;;;;;;;;;;5045469;28;20438;-61
2021/03/27 11:09:05;;;;;;;1.00;0.88;;;;;;;;;;5048887;28;20059;-61
2021/03/27 11:11:34;;;;;;;3.20;0.47;;;;;;;;;;5050232;28;20041;-61
2021/03/27 11:14:00;;;;;;;5.82;0.73;;;;;;;;;;5043637;28;20021;-61
2021/03/27 11:16:38;;;;;;;0.10;0.10;;;;;;;;;;5041841;28;20439;-61
2021/03/27 11:19:23;;;;;;;1.77;0.17;;;;;;;;;;5032947;28;20045;-61
2021/03/27 11:21:51;;;;;;;3.25;0.45;;;;;;;;;;5047772;28;20072;-61
2021/03/27 11:24:41;;;;;;;4.65;0.73;;;;;;;;;;5034313;28;20667;-61
2021/03/27 11:27:25;;;;;;;0.10;0.10;;;;;;;;;;5050936;28;20040;-61
2021/03/27 11:30:10;;;;;;;0.10;0.10;;;;;;;;;;5035812;28;20572;-61
2021/03/27 11:32:52;;;;;;;0.10;0.10;;;;;;;;;;5045561;28;20138;-61
2021/03/27 11:35:18;;;;;;;0.10;0.10;;;;;;;;;;5042272;28;20041;-61
2021/03/27 11:37:50;;;;;;;0.10;0.10;;;;;;;;;;5050035;28;20018;-61
2021/03/27 11:40:16;;;;;;;0.10;0.10;;;;;;;;;;5049682;28;20033;-61
2021/03/27 11:42:48;;;;;;;0.10;0.10;;;;;;;;;;5051232;28;20363;-61
2021/03/27 11:45:35;;;;;;;0.93;0.85;;;;;;;;;;5050918;28;20086;-61
2021/03/27 11:48:01;;;;;;;0.10;0.10;;;;;;;;;;5051782;28;20033;-61
2021/03/27 11:50:30;;;;;;;1.80;0.85;;;;;;;;;;5062346;28;20024;-62
2021/03/27 11:52:59;;;;;;;4.22;1.02;;;;;;;;;;5051144;28;20039;-62
2021/03/27 11:55:36;;;;;;;0.15;0.15;;;;;;;;;;5049730;28;20108;-61
2021/03/27 11:58:02;;;;;;;0.20;0.20;;;;;;;;;;5056033;28;20057;-61
2021/03/27 12:03:33;;;;;;;0.65;0.10;;;;;;;;;;5051199;28;20033;-62
2021/03/27 12:06:22;;;;;;;0.10;0.10;;;;;;;;;;5047448;28;20060;-60
2021/03/27 12:09:04;;;;;;;0.45;0.45;;;;;;;;;;5050053;28;20423;-61
2021/03/27 12:11:49;;;;;;;0.85;0.50;;;;;;;;;;5050158;28;20025;-62
2021/03/27 12:14:24;;;;;;;3.85;2.25;;;;;;;;;;5048967;28;20110;-61
2021/03/27 12:16:50;;;;;;;;;;;;;;;;;;5049094;28;20041;-61
2021/03/27 12:19:16;;;;;;;;;;;;;;;;;;5057695;28;20382;-61
2021/03/27 12:21:45;;;;;;;;;;;;;;;;;;5052192;28;20338;-61
2021/03/27 12:24:11;;;;;;;0.90;0.50;;;;;;;;;;5053631;28;19908;-62
2021/03/27 12:26:40;;;;;;;0.70;0.55;;;;;;;;;;5051612;28;20040;-62
2021/03/27 12:29:18;;;;;;;2.35;0.10;;;;;;;;;;5048427;28;20036;-62
2021/03/27 12:31:50;;;;;;;0.10;0.10;;;;;;;;;;5048968;28;20025;-62
2021/03/27 12:34:43;;;;;;;0.10;0.10;;;;;;;;;;5048784;28;20454;-62
2021/03/27 12:37:09;;;;;;;0.10;0.10;;;;;;;;;;5048008;28;20041;-61
2021/03/27 12:39:53;;;;;;;0.10;0.10;;;;;;;;;;5048018;28;20414;-62
2021/03/27 12:42:23;;;;;;;0.20;0.20;;;;;;;;;;5051844;28;20056;-62
2021/03/27 12:44:55;;;;;;;6.15;0.63;;;;;;;;;;5057368;28;20526;-63
2021/03/27 12:47:24;;;;;;;0.10;0.10;;;;;;;;;;5054397;28;20039;-61
2021/03/27 12:50:20;;;;;;;0.70;0.68;;;;;;;;;;5052791;28;20490;-62
2021/03/27 12:52:55;;;;;;;0.30;0.15;;;;;;;;;;5040197;28;20546;-61
2021/03/27 12:55:41;;;;;;;1.20;0.63;;;;;;;;;;5027083;28;20712;-61
2021/03/27 12:58:10;;;;;;;0.10;0.10;;;;;;;;;;5045738;28;20028;-61
2021/03/27 13:00:36;;;;;;;0.15;0.10;;;;;;;;;;5046527;28;20087;-62
2021/03/27 13:03:20;;;;;;;2.25;0.35;;;;;;;;;;5051772;28;20037;-61
2021/03/27 13:05:49;;;;;;;0.10;0.10;;;;;;;;;;5058041;28;20501;-61
2021/03/27 13:08:41;;;;;;;0.10;0.10;;;;;;;;;;5052881;28;20024;-61
2021/03/27 13:11:11;;;;;;;1.65;1.27;;;;;;;;;;5042666;28;20098;-62
2021/03/27 13:14:09;;;;;;;0.28;0.10;;;;;;;;;;5047503;28;20029;-62
2021/03/27 13:16:46;;;;;;;0.98;0.22;;;;;;;;;;4968510;28;20038;-60
2021/03/27 13:19:38;;;;;;;4.18;0.85;;;;;;;;;;4968731;28;20134;-62
2021/03/27 13:22:11;;;;;;;0.10;0.10;;;;;;;;;;4973348;28;20051;-62
2021/03/27 13:24:37;;;;;;;0.10;0.10;;;;;;;;;;4969317;28;20038;-62
2021/03/27 13:27:15;;;;;;;2.15;2.05;;;;;;;;;;4969021;28;20582;-61
2021/03/27 13:29:45;;;;;;;2.30;0.85;;;;;;;;;;4981858;28;20065;-62
2021/03/27 13:32:16;;;;;;;0.10;0.10;;;;;;;;;;4986192;28;20054;-62
2021/03/27 13:35:03;;;;;;;2.75;0.22;;;;;;;;;;4985890;28;20480;-62
2021/03/27 13:37:30;;;;;;;0.10;0.10;;;;;;;;;;4986178;28;20030;-62
2021/03/27 13:40:00;;;;;;;0.80;0.40;;;;;;;;;;4986793;28;20145;-62
2021/03/27 13:42:36;;;;;;;0.10;0.10;;;;;;;;;;4987273;28;20149;-62
2021/03/27 13:45:09;;;;;;;1.65;0.55;;;;;;;;;;4993537;28;20132;-62
2021/03/27 13:47:40;;;;;;;0.00;0.00;;;;;;;;;;4995926;28;20033;-62
2021/03/27 13:50:24;;;;;;;0.38;0.38;;;;;;;;;;4992993;28;20029;-61
2021/03/27 13:53:05;;;;;;;0.10;0.10;;;;;;;;;;5043993;28;20041;-62
2021/03/27 13:55:31;;;;;;;0.10;0.10;;;;;;;;;;5053569;28;20090;-61
2021/03/27 13:58:01;;;;;;;0.10;0.10;;;;;;;;;;5056184;28;20465;-61
2021/03/27 14:00:51;;;;;;;0.00;0.00;;;;;;;;;;5056879;28;20108;-61
2021/03/27 14:03:20;;;;;;;0.10;0.10;;;;;;;;;;5056640;28;20064;-61
2021/03/27 14:06:00;;;;;;;1.35;0.50;;;;;;;;;;5059859;28;20495;-61
2021/03/27 14:08:36;;;;;;;0.45;0.45;;;;;;;;;;5057511;28;20216;-61
2021/03/27 14:11:18;;;;;;;0.15;0.15;;;;;;;;;;5057585;28;20121;-61
2021/03/27 14:14:02;;;;;;;0.28;0.17;;;;;;;;;;5057722;28;20115;-62
2021/03/27 14:16:29;;;;;;;0.43;0.32;;;;;;;;;;5060369;28;20028;-62
2021/03/27 14:18:58;;;;;;;0.40;0.32;;;;;;;;;;5057060;28;20426;-61
2021/03/27 14:21:24;;;;;;;0.10;0.10;;;;;;;;;;5062220;28;20022;-61
2021/03/27 14:24:08;;;;;;;0.20;0.20;;;;;;;;;;5064114;28;20059;-61
2021/03/27 14:26:59;;;;;;;0.20;0.20;;;;;;;;;;5062267;28;20553;-61
2021/03/27 14:29:35;;;;;;;1.27;0.47;;;;;;;;;;5061425;28;20044;-61
2021/03/27 14:32:25;;;;;;;0.00;0.00;;;;;;;;;;5057611;28;20545;-61
2021/03/27 14:34:51;;;;;;;2.53;0.50;;;;;;;;;;5052760;28;20130;-61
2021/03/27 14:37:32;;;;;;;0.00;0.00;;;;;;;;;;5039021;28;20472;-61
2021/03/27 14:40:13;;;;;;;1.52;0.32;;;;;;;;;;5040795;28;20060;-61
2021/03/27 14:42:48;;;;;;;1.10;0.35;;;;;;;;;;5041218;28;20033;-61
2021/03/27 14:45:18;;;;;;;0.47;0.32;;;;;;;;;;5037619;28;20041;-61
2021/03/27 14:48:02;;;;;;;0.60;0.50;;;;;;;;;;5029419;28;20070;-61
2021/03/27 14:50:43;;;;;;;1.77;1.13;;;;;;;;;;5014104;28;20033;-61
2021/03/27 14:53:22;;;;;;;0.95;0.95;;;;;;;;;;5030808;28;20103;-62
2021/03/27 14:55:51;;;;;;;11.95;0.65;;;;;;;;;;5031223;28;20028;-60
2021/03/27 14:58:23;;;;;;;1.30;0.15;;;;;;;;;;5038762;28;20127;-62
2021/03/27 15:00:53;;;;;;;0.85;0.57;;;;;;;;;;5035246;28;20033;-61
2021/03/27 15:03:26;;;;;;;4.35;0.80;;;;;;;;;;5038583;28;20048;-61
2021/03/27 15:05:54;;;;;;;0.20;0.10;;;;;;;;;;5040475;28;20036;-61
2021/03/27 15:08:28;;;;;;;0.10;0.10;;;;;;;;;;5038805;28;20052;-61
2021/03/27 15:10:59;;;;;;;9.63;1.50;;;;;;;;;;5039152;28;20052;-61
2021/03/27 15:13:28;;;;;;;4.90;0.47;;;;;;;;;;5055517;28;20416;-62
2021/03/27 15:16:03;;;;;;;0.10;0.10;;;;;;;;;;5062361;28;20039;-61
2021/03/27 15:18:33;;;;;;;0.60;0.22;;;;;;;;;;5034992;28;20037;-61
2021/03/27 15:21:01;;;;;;;0.10;0.10;;;;;;;;;;5047826;28;20036;-61
2021/03/27 15:23:33;;;;;;;0.13;0.10;;;;;;;;;;5050679;28;20418;-62
2021/03/27 15:28:49;;;;;;;0.15;0.15;;;;;;;;;;5050531;28;20033;-61
2021/03/27 15:31:18;;;;;;;2.50;0.30;;;;;;;;;;5049719;28;20075;-61
2021/03/27 15:34:00;;;;;;;0.73;0.20;;;;;;;;;;5050989;28;20021;-63
2021/03/27 15:36:26;;;;;;;6.03;0.77;;;;;;;;;;5050513;28;20552;-63
2021/03/27 15:39:07;;;;;;;1.08;0.38;;;;;;;;;;5052562;28;20086;-63
2021/03/27 15:41:42;;;;;;;3.83;0.30;;;;;;;;;;5051747;28;20025;-61
2021/03/27 15:44:16;;;;;;;0.25;0.20;;;;;;;;;;5050875;28;20037;-62
2021/03/27 15:47:04;;;;;;;2.53;0.80;;;;;;;;;;5050978;28;20533;-62
2021/03/27 15:49:42;;;;;;;0.10;0.10;;;;;;;;;;5050818;28;20547;-62
2021/03/27 15:52:11;;;;;;;1.67;0.43;;;;;;;;;;5051201;28;20425;-61
2021/03/27 15:55:01;;;;;;;1.20;0.90;;;;;;;;;;5041592;28;20030;-61
2021/03/27 15:57:33;;;;;;;2.03;0.70;;;;;;;;;;5024270;28;20045;-62
2021/03/27 16:00:05;;;;;;;0.47;0.47;;;;;;;;;;5021288;28;20045;-61
2021/03/27 16:02:37;;;;;;;1.55;0.57;;;;;;;;;;5018079;28;20419;-60
2021/03/27 16:05:09;;;;;;;0.10;0.10;;;;;;;;;;5014596;28;20100;-61
2021/03/27 16:07:39;;;;;;;0.10;0.10;;;;;;;;;;5012109;28;20491;-62
2021/03/27 16:10:16;;;;;;;0.55;0.30;;;;;;;;;;5011805;28;20026;-61
2021/03/27 16:12:48;;;;;;;0.10;0.10;;;;;;;;;;5013669;28;20041;-61
2021/03/27 16:15:17;;;;;;;5.35;0.40;;;;;;;;;;5033240;28;20412;-62
2021/03/27 16:18:01;;;;;;;2.30;0.22;;;;;;;;;;5018519;28;20071;-61
2021/03/27 16:20:47;;;;;;;2.92;0.40;;;;;;;;;;5013455;28;20057;-62
2021/03/27 16:23:27;;;;;;;0.20;0.20;;;;;;;;;;5010569;28;20026;-61
2021/03/27 16:25:53;;;;;;;1.55;1.45;;;;;;;;;;5008878;28;20034;-62
2021/03/27 16:28:19;;;;;;;0.10;0.10;;;;;;;;;;5016591;28;20042;-61
2021/03/27 16:30:51;;;;;;;0.10;0.10;;;;;;;;;;5011276;28;20029;-60
2021/03/27 16:33:21;;;;;;;1.55;0.13;;;;;;;;;;5015476;28;20042;-60
2021/03/27 16:35:59;;;;;;;0.13;0.10;;;;;;;;;;5043695;28;20479;-61
2021/03/27 16:38:35;;;;;;;4.15;1.05;;;;;;;;;;5037654;28;20063;-61
2021/03/27 16:41:12;;;;;;;0.10;0.10;;;;;;;;;;5047939;28;20071;-61
2021/03/27 16:43:38;;;;;;;0.10;0.10;;;;;;;;;;5036171;28;20029;-60
2021/03/27 16:46:22;;;;;;;0.20;0.20;;;;;;;;;;5031164;28;20033;-61
2021/03/27 16:49:10;;;;;;;3.75;1.17;;;;;;;;;;5033559;28;20120;-61
2021/03/27 16:51:39;;;;;;;1.00;0.47;;;;;;;;;;5040249;28;20036;-61
2021/03/27 16:54:14;;;;;;;0.63;0.63;;;;;;;;;;5057955;28;20024;-61
2021/03/27 16:56:56;;;;;;;0.55;0.25;;;;;;;;;;5059411;28;20025;-61
2021/03/27 16:59:30;;;;;;;0.20;0.20;;;;;;;;;;5047479;28;20072;-61
2021/03/27 17:02:08;;;;;;;0.10;0.10;;;;;;;;;;5055477;28;20035;-61
2021/03/27 17:04:37;;;;;;;0.52;0.17;;;;;;;;;;5055977;28;20024;-61
2021/03/27 17:07:09;;;;;;;1.88;0.50;;;;;;;;;;5055332;28;20029;-61
2021/03/27 17:09:40;;;;;;;4.50;3.05;;;;;;;;;;5056188;28;20107;-61
2021/03/27 17:12:08;;;;;;;0.28;0.20;;;;;;;;;;5051993;28;20351;-60
2021/03/27 17:14:40;;;;;;;0.20;0.20;;;;;;;;;;5056944;28;20031;-62
2021/03/27 17:17:18;;;;;;;1.15;0.28;;;;;;;;;;5055028;28;20032;-62
2021/03/27 17:19:44;;;;;;;0.15;0.13;;;;;;;;;;5057125;28;20077;-62
2021/03/27 17:22:13;;;;;;;0.55;0.20;;;;;;;;;;5057086;28;20038;-62
2021/03/27 17:24:47;;;;;;;0.22;0.20;;;;;;;;;;5054290;28;20265;-61
2021/03/27 17:27:17;;;;;;;2.45;0.47;;;;;;;;;;5053668;28;20551;-63
2021/03/27 17:29:43;;;;;;;4.00;0.82;;;;;;;;;;5059418;28;20114;-61
2021/03/27 17:32:09;;;;;;;0.20;0.20;;;;;;;;;;5055043;28;20059;-62
2021/03/27 17:34:41;;;;;;;0.32;0.20;;;;;;;;;;5054550;28;20552;-62
2021/03/27 17:37:16;;;;;;;5.60;1.45;;;;;;;;;;5054684;28;20083;-62
2021/03/27 17:40:06;;;;;;;13.23;0.35;;;;;;;;;;5051589;28;20037;-62
2021/03/27 17:42:38;;;;;;;0.10;0.10;;;;;;;;;;5050371;28;20056;-62
2021/03/27 17:45:13;;;;;;;0.10;0.10;;;;;;;;;;5043414;28;20034;-61
2021/03/27 17:47:39;;;;;;;0.20;0.20;;;;;;;;;;5054309;28;20024;-61
2021/03/27 17:50:29;;;;;;;0.10;0.10;;;;;;;;;;5054598;28;20037;-62
2021/03/27 17:52:57;;;;;;;0.25;0.20;;;;;;;;;;5028301;28;20069;-61
2021/03/27 17:55:26;;;;;;;0.10;0.10;;;;;;;;;;5037015;28;20041;-62
2021/03/27 17:57:54;;;;;;;1.30;1.25;;;;;;;;;;5026714;28;20072;-61
2021/03/27 18:00:29;;;;;;;3.92;1.50;;;;;;;;;;5023887;28;20084;-61
2021/03/27 18:02:55;;;;;;;;;;;;;;;;;;5028933;28;20109;-63
2021/03/27 18:05:21;;;;;;;;;;;;;;;;;;5024559;28;19909;-62
2021/03/27 18:07:47;;;;;;;;;;;;;;;;;;5020402;28;20381;-61
2021/03/27 18:10:13;;;;;;;;;;;;;;;;;;5020003;28;19924;-61
2021/03/27 18:12:40;;;;;;;;;;;;;;;;;;5021976;28;20294;-62
2021/03/27 18:15:14;;;;;;;0.88;0.22;;;;;;;;;;5021559;28;19909;-61
2021/03/27 18:17:42;;;;;;;0.70;0.70;;;;;;;;;;5020816;28;20065;-59
2021/03/27 18:20:20;;;;;;;6.45;0.45;;;;;;;;;;5020797;28;20095;-61
2021/03/27 18:22:49;;;;;;;1.00;1.00;;;;;;;;;;5023611;28;20040;-61
2021/03/27 18:25:44;;;;;;;0.50;0.50;;;;;;;;;;5023389;28;20022;-61
2021/03/27 18:28:18;;;;;;;0.98;0.98;;;;;;;;;;5008454;28;20038;-61
2021/03/27 18:30:57;;;;;;;0.10;0.10;;;;;;;;;;5077239;28;20092;-62
2021/03/27 18:33:34;;;;;;;0.93;0.20;;;;;;;;;;5050901;28;20091;-62
2021/03/27 18:36:03;;;;;;;0.10;0.10;;;;;;;;;;5046630;28;20371;-61
2021/03/27 18:38:33;;;;;;;0.35;0.32;;;;;;;;;;5038492;28;20051;-62
2021/03/27 18:41:03;;;;;;;0.55;0.55;;;;;;;;;;5077527;28;20482;-63
2021/03/27 18:43:31;;;;;;;0.47;0.40;;;;;;;;;;5046391;28;20017;-62
2021/03/27 18:46:11;;;;;;;2.50;0.43;;;;;;;;;;5034515;28;20028;-62
2021/03/27 18:48:46;;;;;;;3.05;0.52;;;;;;;;;;5035191;28;20025;-62
2021/03/27 18:51:12;;;;;;;0.43;0.43;;;;;;;;;;5050148;28;20090;-62
2021/03/27 18:53:38;;;;;;;0.10;0.10;;;;;;;;;;5047694;28;20033;-62
2021/03/27 18:56:06;;;;;;;4.85;0.63;;;;;;;;;;5047634;28;20406;-62
2021/03/27 18:58:51;;;;;;;0.98;0.47;;;;;;;;;;5049606;28;20041;-62
2021/03/27 19:01:38;;;;;;;0.17;0.17;;;;;;;;;;5050337;28;20178;-62
2021/03/27 19:04:13;;;;;;;0.35;0.35;;;;;;;;;;5050487;28;20429;-62
2021/03/27 19:06:48;;;;;;;0.43;0.43;;;;;;;;;;5055212;28;20025;-61
2021/03/27 19:09:23;;;;;;;0.10;0.10;;;;;;;;;;5060705;28;20028;-62
2021/03/27 19:11:49;;;;;;;;;;;;;;;;;;5064627;28;20561;-63
2021/03/27 19:14:15;;;;;;;;;;;;;;;;;;5059703;28;20305;-63
2021/03/27 19:16:41;;;;;;;;;;;;;;;;;;5040033;28;20307;-63
2021/03/27 19:19:07;;;;;;;;;;;;;;;;;;5033025;28;19921;-63
2021/03/27 19:21:33;;;;;;;;;;;;;;;;;;5039164;28;19916;-63
2021/03/27 19:23:59;;;;;;;;;;;;;;;;;;5037608;28;20267;-62
2021/03/27 19:26:25;;;;;;;;;;;;;;;;;;5039653;28;19909;-63
2021/03/27 19:29:03;;;;;;;0.10;0.10;;;;;;;;;;5038602;28;20006;-63
2021/03/27 19:31:32;;;;;;;1.60;1.42;;;;;;;;;;5037706;28;20047;-61
2021/03/27 19:34:16;;;;;;;0.38;0.32;;;;;;;;;;5038475;28;20064;-61
2021/03/27 19:36:43;;;;;;;1.35;0.63;;;;;;;;;;5033130;28;20037;-64
2021/03/27 19:39:23;;;;;;;5.07;0.80;;;;;;;;;;5029620;28;20121;-62
2021/03/27 19:41:58;;;;;;;1.55;0.35;;;;;;;;;;5036189;28;20071;-63
2021/03/27 19:44:38;;;;;;;0.20;0.20;;;;;;;;;;5029209;28;20470;-63
2021/03/27 19:47:13;;;;;;;0.30;0.30;;;;;;;;;;5040106;28;20604;-63
2021/03/27 19:49:47;;;;;;;0.10;0.10;;;;;;;;;;5047065;28;20137;-63
2021/03/27 19:52:25;;;;;;;0.10;0.10;;;;;;;;;;5038275;28;20026;-61
2021/03/27 19:54:51;;;;;;;0.57;0.57;;;;;;;;;;5040130;28;20416;-63
2021/03/27 19:57:26;;;;;;;0.10;0.10;;;;;;;;;;5043932;28;20036;-63
2021/03/27 20:00:31;;;;;;;0.10;0.10;;;;;;;;;;5042731;28;20049;-63
2021/03/27 20:03:03;;;;;;;0.13;0.13;;;;;;;;;;5010510;28;20601;-62
2021/03/27 20:05:33;;;;;;;3.92;0.90;;;;;;;;;;5009052;28;20034;-64
2021/03/27 20:08:26;;;;;;;1.75;0.95;;;;;;;;;;5014546;28;20046;-63
2021/03/27 20:11:02;;;;;;;0.20;0.20;;;;;;;;;;5018354;28;20040;-63
2021/03/27 20:13:33;;;;;;;1.85;0.75;;;;;;;;;;5016843;28;20653;-62
2021/03/27 20:16:07;;;;;;;0.10;0.10;;;;;;;;;;5024024;28;20025;-63
2021/03/27 20:18:37;;;;;;;0.10;0.10;;;;;;;;;;5031148;28;20164;-63
2021/03/27 20:21:21;;;;;;;0.10;0.10;;;;;;;;;;5019522;28;20545;-63
2021/03/27 20:23:53;;;;;;;0.20;0.20;;;;;;;;;;5019059;28;20034;-63
2021/03/27 20:26:22;;;;;;;0.13;0.13;;;;;;;;;;5020746;28;20064;-63
2021/03/27 20:28:49;;;;;;;0.30;0.30;;;;;;;;;;5018143;28;20044;-64
2021/03/27 20:31:21;;;;;;;0.40;0.40;;;;;;;;;;5019168;28;20062;-63
2021/03/27 20:34:03;;;;;;;0.30;0.30;;;;;;;;;;5033647;28;20037;-63
2021/03/27 20:36:29;;;;;;;0.10;0.10;;;;;;;;;;5042365;28;20439;-63
2021/03/27 20:38:55;;;;;;;2.13;2.03;;;;;;;;;;5042323;28;20045;-64
2021/03/27 20:41:27;;;;;;;0.10;0.10;;;;;;;;;;5039874;28;20111;-63
2021/03/27 20:43:56;;;;;;;0.10;0.10;;;;;;;;;;5040556;28;20086;-62
2021/03/27 20:46:35;;;;;;;0.52;0.32;;;;;;;;;;5041897;28;20033;-64
2021/03/27 20:49:06;;;;;;;0.10;0.10;;;;;;;;;;5043819;28;20505;-63
2021/03/27 20:51:42;;;;;;;0.10;0.10;;;;;;;;;;5042085;28;20036;-63
2021/03/27 20:54:32;;;;;;;0.10;0.10;;;;;;;;;;5043265;28;20033;-64
2021/03/27 20:57:06;;;;;;;0.10;0.10;;;;;;;;;;5040228;28;20025;-64
2021/03/27 20:59:35;;;;;;;0.20;0.20;;;;;;;;;;5051735;28;20111;-64
2021/03/27 21:02:18;;;;;;;0.20;0.20;;;;;;;;;;5051723;28;20086;-65
2021/03/27 21:04:53;;;;;;;0.10;0.10;;;;;;;;;;5051007;28;20426;-64
2021/03/27 21:07:38;;;;;;;0.10;0.10;;;;;;;;;;5043167;28;20120;-64
2021/03/27 21:10:10;;;;;;;0.47;0.47;;;;;;;;;;5046320;28;20481;-64
2021/03/27 21:12:52;;;;;;;4.55;0.50;;;;;;;;;;5050848;28;20113;-64
2021/03/27 21:15:20;;;;;;;3.20;0.25;;;;;;;;;;5054162;28;20493;-64
2021/03/27 21:17:53;;;;;;;0.10;0.10;;;;;;;;;;5058800;28;20487;-64
2021/03/27 21:20:22;;;;;;;0.20;0.20;;;;;;;;;;5055440;28;20521;-64
2021/03/27 21:22:48;;;;;;;0.73;0.73;;;;;;;;;;5055701;28;20036;-64
2021/03/27 21:25:20;;;;;;;2.17;0.22;;;;;;;;;;5049620;28;20025;-63
2021/03/27 21:28:13;;;;;;;0.10;0.10;;;;;;;;;;5048127;28;20396;-64
